createdAt,value
2022-08-14T00:01:57.647Z,100501.00
2022-08-14T00:04:34.470Z,100488.00
2022-08-14T00:07:11.314Z,100503.00
2022-08-14T00:09:39.830Z,100489.00
2022-08-14T00:12:24.452Z,100493.00
2022-08-14T00:14:55.166Z,100494.00
2022-08-14T00:17:23.210Z,100493.00
2022-08-14T00:19:51.788Z,100490.00
2022-08-14T00:22:44.203Z,100486.00
2022-08-14T00:25:09.470Z,100493.00
2022-08-14T00:27:37.845Z,100486.00
2022-08-14T00:30:14.252Z,100486.00
2022-08-14T00:32:52.421Z,100479.00
2022-08-14T00:36:34.336Z,100480.00
2022-08-14T00:38:11.158Z,100470.00
2022-08-14T00:40:38.997Z,100484.00
2022-08-14T00:43:06.655Z,100484.00
2022-08-14T00:45:34.434Z,100482.00
2022-08-14T00:48:01.791Z,100474.00
2022-08-14T00:50:30.473Z,100472.00
2022-08-14T00:53:04.097Z,100463.00
2022-08-14T00:55:31.337Z,100465.00
2022-08-14T00:58:27.972Z,100458.00
2022-08-14T01:01:12.719Z,100464.00
2022-08-14T01:03:42.412Z,100458.00
2022-08-14T01:06:18.638Z,100457.00
2022-08-14T01:08:51.318Z,100450.00
2022-08-14T01:11:31.805Z,100450.00
2022-08-14T01:14:04.733Z,100448.00
2022-08-14T01:16:47.420Z,100460.00
2022-08-14T01:19:41.470Z,100444.00
2022-08-14T01:22:12.264Z,100457.00
2022-08-14T01:24:41.955Z,100456.00
2022-08-14T01:27:19.190Z,100454.00
2022-08-14T01:30:01.081Z,100447.00
2022-08-14T01:32:35.329Z,100443.00
2022-08-14T01:35:18.976Z,100451.00
2022-08-14T01:37:56.975Z,100451.00
2022-08-14T01:40:36.442Z,100448.00
2022-08-14T01:43:14.603Z,100447.00
2022-08-14T01:45:48.978Z,100429.00
2022-08-14T01:48:25.782Z,100444.00
2022-08-14T01:50:52.754Z,100449.00
2022-08-14T01:53:20.758Z,100444.00
2022-08-14T01:55:51.586Z,100450.00
2022-08-14T01:58:28.485Z,100443.00
2022-08-14T02:00:58.467Z,100453.00
2022-08-14T02:03:31.427Z,100450.00
2022-08-14T02:06:03.999Z,100451.00
2022-08-14T02:08:53.234Z,100443.00
2022-08-14T02:11:24.833Z,100454.00
2022-08-14T02:14:07.114Z,100446.00
2022-08-14T02:16:39.525Z,100450.00
2022-08-14T02:19:16.964Z,100444.00
2022-08-14T02:21:50.275Z,100439.00
2022-08-14T02:24:39.392Z,100436.00
2022-08-14T02:28:25.302Z,100441.00
2022-08-14T02:30:01.152Z,100433.00
2022-08-14T02:32:36.068Z,100427.00
2022-08-14T02:35:17.694Z,100415.00
2022-08-14T02:37:49.812Z,100425.00
2022-08-14T02:40:32.410Z,100413.00
2022-08-14T02:43:03.614Z,100424.00
2022-08-14T02:45:38.201Z,100418.00
2022-08-14T02:49:01.515Z,100418.00
2022-08-14T02:51:09.320Z,100422.00
2022-08-14T02:53:42.642Z,100419.00
2022-08-14T03:07:26.338Z,100418.00
2022-08-14T03:10:28.115Z,100403.00
2022-08-14T03:12:40.980Z,100410.00
2022-08-14T03:15:16.457Z,100400.00
2022-08-14T03:17:56.864Z,100406.00
2022-08-14T03:20:30.352Z,100413.00
2022-08-14T03:23:02.921Z,100415.00
2022-08-14T03:25:33.376Z,100408.00
2022-08-14T03:28:07.330Z,100415.00
2022-08-14T03:30:38.796Z,100420.00
2022-08-14T03:33:12.353Z,100416.00
2022-08-14T03:36:00.136Z,100412.00
2022-08-14T03:39:14.471Z,100394.00
2022-08-14T03:41:25.352Z,100403.00
2022-08-14T03:45:17.497Z,100408.00
2022-08-14T03:46:52.762Z,100390.00
2022-08-14T03:49:29.244Z,100389.00
2022-08-14T03:52:00.737Z,100390.00
2022-08-14T03:54:29.566Z,100383.00
2022-08-14T03:57:03.019Z,100366.00
2022-08-14T03:59:34.175Z,100385.00
2022-08-14T04:02:04.508Z,100373.00
2022-08-14T04:04:33.538Z,100361.00
2022-08-14T04:07:01.169Z,100360.00
2022-08-14T04:09:29.386Z,100369.00
2022-08-14T04:11:58.187Z,100374.00
2022-08-14T04:14:26.823Z,100375.00
2022-08-14T04:16:54.798Z,100368.00
2022-08-14T04:19:24.551Z,100373.00
2022-08-14T04:22:03.234Z,100375.00
2022-08-14T04:24:38.644Z,100378.00
2022-08-14T04:27:10.025Z,100377.00
2022-08-14T04:29:45.024Z,100373.00
2022-08-14T04:32:58.632Z,100369.00
2022-08-14T04:35:01.692Z,100385.00
2022-08-14T04:37:53.636Z,100388.00
2022-08-14T04:40:40.283Z,100380.00
2022-08-14T04:43:38.457Z,100389.00
2022-08-14T04:46:11.960Z,100393.00
2022-08-14T04:49:00.074Z,100384.00
2022-08-14T04:51:30.064Z,100385.00
2022-08-14T04:54:04.487Z,100385.00
2022-08-14T04:56:34.141Z,100388.00
2022-08-14T04:59:10.339Z,100386.00
2022-08-14T05:01:49.026Z,100382.00
2022-08-14T05:04:19.938Z,100380.00
2022-08-14T05:06:49.853Z,100378.00
2022-08-14T05:09:21.609Z,100381.00
2022-08-14T05:11:51.849Z,100383.00
2022-08-14T05:14:43.000Z,100383.00
2022-08-14T05:17:12.002Z,100378.00
2022-08-14T05:19:45.053Z,100374.00
2022-08-14T05:22:27.080Z,100370.00
2022-08-14T05:24:54.857Z,100357.00
2022-08-14T05:27:23.194Z,100368.00
2022-08-14T05:29:57.097Z,100371.00
2022-08-14T05:32:27.254Z,100378.00
2022-08-14T05:35:00.083Z,100371.00
2022-08-14T05:37:29.840Z,100371.00
2022-08-14T05:39:59.124Z,100371.00
2022-08-14T05:42:32.013Z,100370.00
2022-08-14T05:45:05.192Z,100386.00
2022-08-14T05:47:42.023Z,100365.00
2022-08-14T05:50:18.728Z,100380.00
2022-08-14T05:52:51.018Z,100382.00
2022-08-14T05:55:22.797Z,100373.00
2022-08-14T05:58:01.006Z,100384.00
2022-08-14T06:00:40.994Z,100382.00
2022-08-14T06:03:14.905Z,100370.00
2022-08-14T06:05:43.801Z,100377.00
2022-08-14T06:08:36.455Z,100375.00
2022-08-14T06:11:10.361Z,100373.00
2022-08-14T06:13:45.155Z,100367.00
2022-08-14T06:16:17.657Z,100368.00
2022-08-14T06:18:52.526Z,100361.00
2022-08-14T06:21:22.899Z,100366.00
2022-08-14T06:23:50.516Z,100354.00
2022-08-14T06:26:20.852Z,100354.00
2022-08-14T06:28:52.353Z,100361.00
2022-08-14T06:31:21.222Z,100353.00
2022-08-14T06:35:03.056Z,100348.00
2022-08-14T06:36:38.475Z,100353.00
2022-08-14T06:39:10.082Z,100347.00
2022-08-14T06:41:58.252Z,100336.00
2022-08-14T06:44:32.608Z,100336.00
2022-08-14T06:47:04.481Z,100344.00
2022-08-14T06:49:40.523Z,100321.00
2022-08-14T06:52:15.084Z,100335.00
2022-08-14T06:54:43.175Z,100334.00
2022-08-14T06:57:10.145Z,100334.00
2022-08-14T06:59:37.240Z,100334.00
2022-08-14T07:02:22.847Z,100319.00
2022-08-14T07:05:20.859Z,100330.00
2022-08-14T07:07:51.106Z,100333.00
2022-08-14T07:10:18.323Z,100326.00
2022-08-14T07:12:56.240Z,100307.00
2022-08-14T07:15:29.584Z,100322.00
2022-08-14T07:18:00.693Z,100302.00
2022-08-14T07:20:30.683Z,100307.00
2022-08-14T07:23:08.530Z,100308.00
2022-08-14T07:25:43.766Z,100303.00
2022-08-14T07:28:20.552Z,100308.00
2022-08-14T07:30:51.423Z,100301.00
2022-08-14T07:33:24.608Z,100305.00
2022-08-14T07:36:00.274Z,100310.00
2022-08-14T07:38:35.814Z,100298.00
2022-08-14T07:41:06.845Z,100298.00
2022-08-14T07:43:40.890Z,100312.00
2022-08-14T07:46:08.379Z,100312.00
2022-08-14T07:48:41.451Z,100324.00
2022-08-14T07:51:09.165Z,100322.00
2022-08-14T07:53:41.141Z,100332.00
2022-08-14T07:56:44.285Z,100323.00
2022-08-14T07:58:58.787Z,100313.00
2022-08-14T08:01:29.964Z,100318.00
2022-08-14T08:04:01.421Z,100307.00
2022-08-14T08:06:31.043Z,100309.00
2022-08-14T08:09:02.761Z,100298.00
2022-08-14T08:11:37.402Z,100304.00
2022-08-14T08:14:10.521Z,100300.00
2022-08-14T08:16:51.304Z,100300.00
2022-08-14T08:19:19.417Z,100285.00
2022-08-14T08:21:47.532Z,100277.00
2022-08-14T08:24:18.534Z,100286.00
2022-08-14T08:26:50.671Z,100265.00
2022-08-14T08:29:25.155Z,100283.00
2022-08-14T08:32:01.804Z,100271.00
2022-08-14T08:34:46.160Z,100273.00
2022-08-14T08:37:18.506Z,100278.00
2022-08-14T08:40:03.075Z,100281.00
2022-08-14T08:42:52.077Z,100289.00
2022-08-14T08:45:21.654Z,100279.00
2022-08-14T08:47:51.253Z,100274.00
2022-08-14T08:53:10.251Z,100266.00
2022-08-14T08:55:44.960Z,100264.00
2022-08-14T08:58:20.137Z,100269.00
2022-08-14T09:00:57.155Z,100261.00
2022-08-14T09:03:27.966Z,100265.00
2022-08-14T09:05:58.336Z,100256.00
2022-08-14T09:08:38.937Z,100261.00
2022-08-14T09:11:19.750Z,100254.00
2022-08-14T09:13:54.179Z,100239.00
2022-08-14T09:16:25.870Z,100240.00
2022-08-14T09:18:55.346Z,100238.00
2022-08-14T09:21:24.055Z,100230.00
2022-08-14T09:24:30.218Z,100235.00
2022-08-14T09:26:49.266Z,100227.00
2022-08-14T09:29:20.095Z,100230.00
2022-08-14T09:31:57.508Z,100219.00
2022-08-14T09:34:57.926Z,100213.00
2022-08-14T09:38:19.531Z,100206.00
2022-08-14T09:41:15.954Z,100202.00
2022-08-14T09:44:20.945Z,100198.00
2022-08-14T09:47:00.756Z,100191.00
2022-08-14T09:49:39.934Z,100182.00
2022-08-14T09:52:33.442Z,100195.00
2022-08-14T09:54:57.337Z,100182.00
2022-08-14T09:57:31.415Z,100191.00
2022-08-14T09:59:59.005Z,100190.00
2022-08-14T10:02:34.341Z,100185.00
2022-08-14T10:05:11.283Z,100191.00
2022-08-14T10:07:53.860Z,100181.00
2022-08-14T10:10:41.746Z,100179.00
2022-08-14T10:13:25.375Z,100184.00
2022-08-14T10:16:00.166Z,100167.00
2022-08-14T10:18:28.507Z,100155.00
2022-08-14T10:21:01.645Z,100159.00
2022-08-14T10:23:45.499Z,100161.00
2022-08-14T10:26:22.601Z,100157.00
2022-08-14T10:29:18.543Z,100158.00
2022-08-14T10:31:59.396Z,100158.00
2022-08-14T10:34:36.544Z,100163.00
2022-08-14T10:37:14.440Z,100152.00
2022-08-14T10:40:01.453Z,100144.00
2022-08-14T10:42:41.624Z,100162.00
2022-08-14T10:45:24.453Z,100150.00
2022-08-14T10:48:08.774Z,100135.00
2022-08-14T10:50:49.361Z,100136.00
2022-08-14T10:53:16.618Z,100150.00
2022-08-14T10:55:45.139Z,100152.00
2022-08-14T10:58:14.174Z,100146.00
2022-08-14T11:00:56.719Z,100147.00
2022-08-14T11:03:26.604Z,100146.00
2022-08-14T11:06:24.665Z,100161.00
2022-08-14T11:08:52.849Z,100142.00
2022-08-14T11:11:35.776Z,100139.00
2022-08-14T11:14:09.531Z,100132.00
2022-08-14T11:16:39.313Z,100134.00
2022-08-14T11:19:10.617Z,100129.00
2022-08-14T11:21:40.544Z,100132.00
2022-08-14T11:24:50.952Z,100127.00
2022-08-14T11:27:05.633Z,100128.00
2022-08-14T11:29:36.168Z,100117.00
2022-08-14T11:32:04.693Z,100111.00
2022-08-14T11:34:37.378Z,100113.00
2022-08-14T11:37:19.085Z,100129.00
2022-08-14T11:39:53.943Z,100128.00
2022-08-14T11:42:56.856Z,100119.00
2022-08-14T11:45:18.770Z,100126.00
2022-08-14T11:48:13.358Z,100125.00
2022-08-14T11:50:42.204Z,100118.00
2022-08-14T11:53:30.317Z,100123.00
2022-08-14T11:56:06.121Z,100129.00
2022-08-14T11:58:38.686Z,100119.00
2022-08-14T12:01:09.524Z,100121.00
2022-08-14T12:03:56.979Z,100128.00
2022-08-14T12:06:28.538Z,100119.00
2022-08-14T12:09:00.812Z,100115.00
2022-08-14T12:11:43.083Z,100112.00
2022-08-14T12:14:30.950Z,100111.00
2022-08-14T12:17:12.749Z,100122.00
2022-08-14T12:19:54.081Z,100116.00
2022-08-14T12:22:42.421Z,100108.00
2022-08-14T12:25:18.889Z,100113.00
2022-08-14T12:27:53.459Z,100121.00
2022-08-14T12:30:42.563Z,100091.00
2022-08-14T12:33:30.583Z,100098.00
2022-08-14T12:36:04.513Z,100087.00
2022-08-14T12:38:45.157Z,100103.00
2022-08-14T12:41:24.097Z,100097.00
2022-08-14T12:44:00.080Z,100088.00
2022-08-14T12:46:30.746Z,100091.00
2022-08-14T12:49:06.354Z,100085.00
2022-08-14T12:51:33.656Z,100061.00
2022-08-14T12:54:27.073Z,100067.00
2022-08-14T12:57:19.361Z,100060.00
2022-08-14T12:59:49.481Z,100052.00
2022-08-14T13:02:29.874Z,100054.00
2022-08-14T13:04:58.111Z,100048.00
2022-08-14T13:07:32.041Z,100046.00
2022-08-14T13:10:00.510Z,100050.00
2022-08-14T13:13:12.629Z,100048.00
2022-08-14T13:15:38.291Z,100041.00
2022-08-14T13:18:10.573Z,100034.00
2022-08-14T13:20:48.113Z,100038.00
2022-08-14T13:23:30.535Z,100029.00
2022-08-14T13:26:00.791Z,100044.00
2022-08-14T13:28:33.188Z,100038.00
2022-08-14T13:31:08.905Z,100022.00
2022-08-14T13:33:40.790Z,100008.00
2022-08-14T13:36:10.989Z,100017.00
2022-08-14T13:38:51.380Z,100010.00
2022-08-14T13:41:28.026Z,100007.00
2022-08-14T13:44:00.588Z,100006.00
2022-08-14T13:46:28.006Z,100011.00
2022-08-14T13:48:57.677Z,100000.00
2022-08-14T13:51:37.556Z,99997.00
2022-08-14T13:54:10.811Z,99984.00
2022-08-14T13:56:41.861Z,99979.00
2022-08-14T13:59:10.751Z,99980.00
2022-08-14T14:01:43.594Z,99977.00
2022-08-14T14:04:19.793Z,99963.00
2022-08-14T14:06:50.983Z,99957.00
2022-08-14T14:09:32.589Z,99954.00
2022-08-14T14:12:38.220Z,99957.00
2022-08-14T14:15:05.064Z,99948.00
2022-08-14T14:17:36.245Z,99944.00
2022-08-14T14:20:34.445Z,99949.00
2022-08-14T14:23:02.346Z,99930.00
2022-08-14T14:25:45.574Z,99930.00
2022-08-14T14:28:24.506Z,99937.00
2022-08-14T14:30:57.464Z,99929.00
2022-08-14T14:33:49.561Z,99935.00
2022-08-14T14:36:26.799Z,99935.00
2022-08-14T14:39:05.366Z,99937.00
2022-08-14T14:41:43.960Z,99931.00
2022-08-14T14:44:15.904Z,99934.00
2022-08-14T14:46:50.807Z,99931.00
2022-08-14T14:49:31.817Z,99928.00
2022-08-14T14:52:15.298Z,99935.00
2022-08-14T14:54:50.941Z,99936.00
2022-08-14T14:57:19.215Z,99933.00
2022-08-14T14:59:46.711Z,99932.00
2022-08-14T15:02:34.546Z,99923.00
2022-08-14T15:05:05.737Z,99931.00
2022-08-14T15:07:33.091Z,99930.00
2022-08-14T15:10:04.117Z,99932.00
2022-08-14T15:12:55.435Z,99954.00
2022-08-14T15:15:18.105Z,99959.00
2022-08-14T15:17:47.183Z,99950.00
2022-08-14T15:20:29.607Z,99951.00
2022-08-14T15:23:11.934Z,99952.00
2022-08-14T15:25:41.817Z,99962.00
2022-08-14T15:28:12.804Z,99958.00
2022-08-14T15:30:45.981Z,99965.00
2022-08-14T15:34:01.146Z,99969.00
2022-08-14T15:36:31.418Z,99959.00
2022-08-14T15:38:59.462Z,99968.00
2022-08-14T15:41:33.733Z,99988.00
2022-08-14T15:44:25.234Z,99987.00
2022-08-14T15:46:55.538Z,99989.00
2022-08-14T15:49:28.448Z,99991.00
2022-08-14T15:52:00.451Z,99991.00
2022-08-14T15:54:31.435Z,99985.00
2022-08-14T15:57:08.428Z,99994.00
2022-08-14T15:59:56.219Z,99993.00
2022-08-14T16:02:27.755Z,100011.00
2022-08-14T16:04:56.272Z,100056.00
2022-08-14T16:07:25.164Z,100075.00
2022-08-14T16:10:18.539Z,100074.00
2022-08-14T16:12:54.575Z,100092.00
2022-08-14T16:15:22.477Z,100098.00
2022-08-14T16:17:54.486Z,100098.00
2022-08-14T16:20:42.186Z,100106.00
2022-08-14T16:23:12.408Z,100110.00
2022-08-14T16:25:44.942Z,100124.00
2022-08-14T16:31:00.183Z,100131.00
2022-08-14T16:33:58.875Z,100133.00
2022-08-14T16:36:30.559Z,100106.00
2022-08-14T16:39:00.751Z,100095.00
2022-08-14T16:41:29.387Z,100084.00
2022-08-14T16:44:04.640Z,100078.00
2022-08-14T16:46:42.937Z,100059.00
2022-08-14T16:49:14.580Z,100065.00
2022-08-14T16:51:45.258Z,100046.00
2022-08-14T16:54:34.569Z,100067.00
2022-08-14T16:57:22.485Z,100078.00
2022-08-14T16:59:57.779Z,100048.00
2022-08-14T17:02:34.419Z,100070.00
2022-08-14T17:05:22.724Z,100067.00
2022-08-14T17:08:28.611Z,100076.00
2022-08-14T17:10:51.663Z,100082.00
2022-08-14T17:13:59.935Z,100084.00
2022-08-14T17:16:24.755Z,100089.00
2022-08-14T17:19:01.032Z,100092.00
2022-08-14T17:21:41.549Z,100076.00
2022-08-14T17:24:58.364Z,100094.00
2022-08-14T17:27:03.995Z,100075.00
2022-08-14T17:29:44.659Z,100060.00
2022-08-14T17:32:44.275Z,100069.00
2022-08-14T17:35:26.687Z,100059.00
2022-08-14T17:38:38.643Z,100053.00
2022-08-14T17:41:23.797Z,100050.00
2022-08-14T17:46:43.352Z,100037.00
2022-08-14T17:49:18.139Z,100038.00
2022-08-14T17:52:16.748Z,100034.00
2022-08-14T17:54:53.000Z,100023.00
2022-08-14T17:57:28.585Z,100031.00
2022-08-14T17:59:59.159Z,100020.00
2022-08-14T18:02:31.499Z,100019.00
2022-08-14T18:05:00.706Z,100004.00
2022-08-14T18:07:59.738Z,100004.00
2022-08-14T18:10:53.149Z,100014.00
2022-08-14T18:13:08.070Z,100009.00
2022-08-14T18:15:41.435Z,100001.00
2022-08-14T18:18:11.759Z,99990.00
2022-08-14T18:21:40.565Z,99978.00
2022-08-14T18:23:28.538Z,99977.00
2022-08-14T18:25:58.641Z,99973.00
2022-08-14T18:28:48.661Z,99972.00
2022-08-14T18:31:21.676Z,99973.00
2022-08-14T18:34:32.008Z,99984.00
2022-08-14T18:37:16.720Z,99980.00
2022-08-14T18:40:01.752Z,99989.00
2022-08-14T18:42:34.897Z,99988.00
2022-08-14T18:45:12.874Z,99985.00
2022-08-14T18:48:14.061Z,99986.00
2022-08-14T18:50:32.480Z,99988.00
2022-08-14T18:53:11.042Z,99990.00
2022-08-14T18:55:52.767Z,99987.00
2022-08-14T18:58:31.768Z,99996.00
2022-08-14T19:01:04.638Z,100001.00
2022-08-14T19:03:39.060Z,99997.00
2022-08-14T19:06:10.066Z,99992.00
2022-08-14T19:08:49.483Z,99994.00
2022-08-14T19:11:51.532Z,100006.00
2022-08-14T19:14:47.575Z,100023.00
2022-08-14T19:18:10.583Z,100009.00
2022-08-14T19:21:02.482Z,100013.00
2022-08-14T19:23:44.056Z,100012.00
2022-08-14T19:26:36.074Z,100014.00
2022-08-14T19:29:37.712Z,100006.00
2022-08-14T19:32:36.836Z,100003.00
2022-08-14T19:35:48.719Z,100007.00
2022-08-14T19:38:51.787Z,99996.00
2022-08-14T19:41:29.850Z,99993.00
2022-08-14T19:44:19.063Z,99985.00
2022-08-14T19:47:02.538Z,99983.00
2022-08-14T19:50:07.930Z,99994.00
2022-08-14T19:52:37.193Z,100003.00
2022-08-14T19:55:19.818Z,100001.00
2022-08-14T19:57:57.918Z,99993.00
2022-08-14T20:00:30.010Z,99999.00
2022-08-14T20:03:11.737Z,99986.00
2022-08-14T20:05:45.828Z,99984.00
2022-08-14T20:10:59.042Z,99980.00
2022-08-14T20:11:20.580Z,99987.00
2022-08-14T20:14:11.999Z,99976.00
2022-08-14T20:16:51.258Z,99982.00
2022-08-14T20:19:28.826Z,99986.00
2022-08-14T20:22:34.719Z,99987.00
2022-08-14T20:24:54.165Z,99984.00
2022-08-14T20:27:44.057Z,99993.00
2022-08-14T20:30:33.876Z,99986.00
2022-08-14T20:33:11.579Z,99991.00
2022-08-14T20:35:52.235Z,99995.00
2022-08-14T20:38:33.663Z,99995.00
2022-08-14T20:41:09.754Z,99994.00
2022-08-14T20:44:00.926Z,99984.00
2022-08-14T20:46:38.590Z,99983.00
2022-08-14T20:49:22.212Z,99981.00
2022-08-14T20:52:05.192Z,99981.00
2022-08-14T20:54:50.729Z,99978.00
2022-08-14T20:57:19.006Z,99978.00
2022-08-14T20:59:53.095Z,99965.00
2022-08-14T21:02:46.610Z,99979.00
2022-08-14T21:05:34.038Z,99979.00
2022-08-14T21:08:08.489Z,99974.00
2022-08-14T21:10:44.518Z,99982.00
2022-08-14T21:14:08.754Z,99984.00
2022-08-14T21:16:34.613Z,99984.00
2022-08-14T21:18:58.679Z,99991.00
2022-08-14T21:21:41.755Z,99986.00
2022-08-14T21:24:38.716Z,99979.00
2022-08-14T21:27:12.677Z,99983.00
2022-08-14T21:29:55.022Z,99973.00
2022-08-14T21:32:34.670Z,99984.00
2022-08-14T21:35:10.081Z,99978.00
2022-08-14T21:37:45.969Z,99977.00
2022-08-14T21:40:42.245Z,99972.00
2022-08-14T21:43:17.958Z,99967.00
2022-08-14T21:45:53.497Z,99973.00
2022-08-14T21:48:29.471Z,99968.00
2022-08-14T21:51:55.289Z,99968.00
2022-08-14T21:53:58.330Z,99964.00
2022-08-14T21:56:39.048Z,99961.00
2022-08-14T21:59:17.485Z,99964.00
2022-08-14T22:02:00.726Z,99965.00
2022-08-14T22:04:40.011Z,99962.00
2022-08-14T22:07:17.445Z,99963.00
2022-08-14T22:09:55.504Z,99954.00
2022-08-14T22:12:58.332Z,99949.00
2022-08-14T22:15:19.268Z,99934.00
2022-08-14T22:17:50.986Z,99938.00
2022-08-14T22:20:21.579Z,99946.00
2022-08-14T22:22:56.047Z,99942.00
2022-08-14T22:25:32.957Z,99938.00
2022-08-14T22:28:05.677Z,99944.00
2022-08-14T22:30:34.881Z,99929.00
2022-08-14T22:33:02.471Z,99928.00
2022-08-14T22:35:29.900Z,99915.00
2022-08-14T22:38:34.444Z,99918.00
2022-08-14T22:41:09.519Z,99914.00
2022-08-14T22:43:35.199Z,99905.00
2022-08-14T22:46:14.543Z,99916.00
2022-08-14T22:48:45.324Z,99913.00
2022-08-14T22:51:18.753Z,99921.00
2022-08-14T22:53:52.533Z,99925.00
2022-08-14T22:56:29.332Z,99900.00
2022-08-14T22:59:01.811Z,99910.00
2022-08-14T23:01:55.706Z,99900.00
2022-08-14T23:04:34.995Z,99890.00
2022-08-14T23:07:21.945Z,99915.00
2022-08-14T23:10:32.190Z,99909.00
2022-08-14T23:12:54.690Z,99903.00
2022-08-14T23:15:24.538Z,99919.00
2022-08-14T23:17:56.038Z,99914.00
2022-08-14T23:20:29.276Z,99913.00
2022-08-14T23:22:58.400Z,99912.00
2022-08-14T23:25:56.844Z,99908.00
2022-08-14T23:28:32.974Z,99904.00
2022-08-14T23:31:15.290Z,99903.00
2022-08-14T23:34:07.105Z,99897.00
2022-08-14T23:36:53.325Z,99895.00
2022-08-14T23:39:33.291Z,99886.00
2022-08-14T23:42:08.396Z,99883.00
2022-08-14T23:44:38.211Z,99885.00
2022-08-14T23:47:12.047Z,99882.00
2022-08-14T23:50:01.297Z,99879.00
2022-08-14T23:52:51.050Z,99874.00
2022-08-14T23:55:32.077Z,99886.00
2022-08-14T23:58:00.679Z,99888.00
